X  Schließen METAR Luftfahrt Wetterdaten     EDDL Düsseldorf Airport
Temperatur
5°C Temperatur
2°C Taupunkt
81% Feuchtigkeit



Wind
19 KM/H
12 MPS
5 M/S
10 KTS



30°
NNO
Aktuelle Wetterlage

Bewölkt Bewölkt
Luftdruck 1024.92 (hPa) - 30.27 (inHg)
Sichtweite 6.2 (Meile) - 10 (Km)
Flughafen
Flughafen Code EDDL

Position : Düsseldorf Airport
Entfernung: 30 (Km)

Metar:
EDDL 271320Z AUTO 03010KT 9999 OVC019 05/02 Q1025 NOSIG

Zeit: 27-01-2023 14:20 CET